createdAt,value
2018-04-18T00:00:07.598Z,98649
2018-04-18T00:02:35.765Z,98651
2018-04-18T00:05:03.953Z,98650
2018-04-18T00:07:32.120Z,98650
2018-04-18T00:10:00.313Z,98653
2018-04-18T00:12:28.489Z,98656
2018-04-18T00:14:57.433Z,98655
2018-04-18T00:17:25.589Z,98654
2018-04-18T00:19:53.765Z,98655
2018-04-18T00:22:21.930Z,98657
2018-04-18T00:24:50.864Z,98659
2018-04-18T00:27:19.061Z,98655
2018-04-18T00:29:47.231Z,98659
2018-04-18T00:32:15.416Z,98662
2018-04-18T00:34:43.601Z,98665
2018-04-18T00:37:12.547Z,98660
2018-04-18T00:39:40.732Z,98671
2018-04-18T00:42:08.915Z,98667
2018-04-18T00:44:37.089Z,98673
2018-04-18T00:47:05.261Z,98665
2018-04-18T00:49:34.206Z,98675
2018-04-18T00:52:02.384Z,98681
2018-04-18T00:54:30.567Z,98678
2018-04-18T00:56:58.746Z,98682
2018-04-18T00:59:26.923Z,98691
2018-04-18T01:01:55.090Z,98693
2018-04-18T01:04:23.260Z,98693
2018-04-18T01:06:51.458Z,98687
2018-04-18T01:09:19.637Z,98692
2018-04-18T01:11:47.825Z,98696
2018-04-18T01:14:16.021Z,98696
2018-04-18T01:16:44.247Z,98695
2018-04-18T01:19:12.472Z,98690
2018-04-18T01:21:40.650Z,98695
2018-04-18T01:24:08.829Z,98692
2018-04-18T01:26:37.771Z,98702
2018-04-18T01:29:05.984Z,98701
2018-04-18T01:31:34.156Z,98704
2018-04-18T01:34:03.113Z,98711
2018-04-18T01:36:31.321Z,98708
2018-04-18T01:38:59.489Z,98715
2018-04-18T01:41:27.663Z,98716
2018-04-18T01:43:55.912Z,98720
2018-04-18T01:46:24.097Z,98717
2018-04-18T01:48:52.317Z,98710
2018-04-18T01:51:21.263Z,98713
2018-04-18T01:53:49.432Z,98718
2018-04-18T01:56:17.605Z,98718
2018-04-18T01:58:45.801Z,98720
2018-04-18T02:01:14.228Z,98717
2018-04-18T02:03:43.177Z,98715
2018-04-18T02:06:11.349Z,98718
2018-04-18T02:08:39.578Z,98722
2018-04-18T02:11:07.753Z,98718
2018-04-18T02:13:35.928Z,98718
2018-04-18T02:16:04.114Z,98723
2018-04-18T02:18:32.295Z,98716
2018-04-18T02:21:00.473Z,98714
2018-04-18T02:23:28.671Z,98714
2018-04-18T02:25:56.852Z,98717
2018-04-18T02:28:25.054Z,98714
2018-04-18T02:30:54.020Z,98714
2018-04-18T02:33:22.197Z,98719
2018-04-18T02:35:50.401Z,98716
2018-04-18T02:38:19.381Z,98722
2018-04-18T02:40:47.560Z,98716
2018-04-18T02:43:15.730Z,98726
2018-04-18T02:45:44.662Z,98731
2018-04-18T02:48:12.849Z,98729
2018-04-18T02:50:41.053Z,98727
2018-04-18T02:53:09.220Z,98725
2018-04-18T02:55:37.388Z,98730
2018-04-18T02:58:05.568Z,98728
2018-04-18T03:00:33.750Z,98727
2018-04-18T03:03:01.921Z,98730
2018-04-18T03:05:30.095Z,98726
2018-04-18T03:07:58.285Z,98725
2018-04-18T03:10:26.480Z,98722
2018-04-18T03:12:55.418Z,98724
2018-04-18T03:15:23.591Z,98721
2018-04-18T03:17:51.788Z,98720
2018-04-18T03:20:19.985Z,98723
2018-04-18T03:22:48.166Z,98725
2018-04-18T03:25:17.105Z,98732
2018-04-18T03:27:45.282Z,98736
2018-04-18T03:30:13.456Z,98740
2018-04-18T03:32:41.628Z,98737
2018-04-18T03:35:09.801Z,98736
2018-04-18T03:37:38.005Z,98742
2018-04-18T03:40:06.182Z,98746
2018-04-18T03:42:34.360Z,98743
2018-04-18T03:45:02.577Z,98749
2018-04-18T03:47:30.732Z,98746
2018-04-18T03:49:59.690Z,98746
2018-04-18T03:52:27.865Z,98753
2018-04-18T03:54:56.035Z,98752
2018-04-18T03:57:24.205Z,98741
2018-04-18T03:59:52.377Z,98759
2018-04-18T04:02:20.562Z,98765
2018-04-18T04:04:48.773Z,98765
2018-04-18T04:07:17.715Z,98767
2018-04-18T04:09:45.890Z,98768
2018-04-18T04:12:14.061Z,98769
2018-04-18T04:14:42.253Z,98776
2018-04-18T04:17:28.279Z,98777
2018-04-18T04:20:15.025Z,98778
2018-04-18T04:23:01.158Z,98780
2018-04-18T04:25:29.337Z,98786
2018-04-18T04:27:57.538Z,98783
2018-04-18T04:30:26.589Z,98788
2018-04-18T04:32:54.788Z,98786
2018-04-18T04:35:23.004Z,98788
2018-04-18T04:37:51.204Z,98790
2018-04-18T04:40:19.395Z,98789
2018-04-18T04:42:47.606Z,98797
2018-04-18T04:45:16.557Z,98797
2018-04-18T04:47:44.724Z,98798
2018-04-18T04:50:12.897Z,98802
2018-04-18T04:52:41.084Z,98806
2018-04-18T04:55:09.268Z,98806
2018-04-18T04:57:37.445Z,98807
2018-04-18T05:00:05.625Z,98811
2018-04-18T05:02:33.816Z,98813
2018-04-18T05:05:02.761Z,98812
2018-04-18T05:07:30.954Z,98808
2018-04-18T05:09:59.128Z,98816
2018-04-18T05:12:27.308Z,98818
2018-04-18T05:14:55.482Z,98828
2018-04-18T05:17:23.678Z,98824
2018-04-18T05:19:51.864Z,98828
2018-04-18T05:22:20.820Z,98822
2018-04-18T05:24:48.999Z,98829
2018-04-18T05:27:17.173Z,98833
2018-04-18T05:29:45.357Z,98836
2018-04-18T05:32:13.557Z,98841
2018-04-18T05:34:42.497Z,98844
2018-04-18T05:37:10.670Z,98846
2018-04-18T05:39:38.853Z,98844
2018-04-18T05:42:07.225Z,98847
2018-04-18T05:44:35.408Z,98848
2018-04-18T05:47:03.577Z,98852
2018-04-18T05:49:31.783Z,98839
2018-04-18T05:51:59.965Z,98842
2018-04-18T05:54:28.152Z,98850
2018-04-18T05:56:57.091Z,98848
2018-04-18T05:59:25.314Z,98843
2018-04-18T06:01:53.489Z,98856
2018-04-18T06:04:21.676Z,98855
2018-04-18T06:06:50.653Z,98859
2018-04-18T06:09:18.832Z,98861
2018-04-18T06:11:47.812Z,98866
2018-04-18T06:14:15.984Z,98862
2018-04-18T06:16:45.681Z,98866
2018-04-18T06:19:13.941Z,98875
2018-04-18T06:21:42.837Z,98874
2018-04-18T06:24:11.030Z,98878
2018-04-18T06:26:39.995Z,98874
2018-04-18T06:29:08.174Z,98878
2018-04-18T06:31:36.344Z,98879
2018-04-18T06:34:04.532Z,98880
2018-04-18T06:36:32.724Z,98877
2018-04-18T06:39:00.893Z,98881
2018-04-18T06:41:29.084Z,98884
2018-04-18T06:43:57.253Z,98886
2018-04-18T06:46:26.193Z,98880
2018-04-18T06:48:54.366Z,98890
2018-04-18T06:51:22.534Z,98887
2018-04-18T06:53:50.713Z,98886
2018-04-18T06:56:19.010Z,98881
2018-04-18T06:58:47.209Z,98890
2018-04-18T07:01:15.376Z,98889
2018-04-18T07:03:43.552Z,98890
2018-04-18T07:06:11.750Z,98895
2018-04-18T07:08:39.939Z,98896
2018-04-18T07:11:08.957Z,98898
2018-04-18T07:13:37.913Z,98905
2018-04-18T07:16:06.102Z,98905
2018-04-18T07:18:35.044Z,98903
2018-04-18T07:21:03.230Z,98905
2018-04-18T07:23:31.412Z,98907
2018-04-18T07:25:59.581Z,98909
2018-04-18T07:28:27.777Z,98906
2018-04-18T07:30:55.958Z,98905
2018-04-18T07:33:24.154Z,98908
2018-04-18T07:35:53.105Z,98904
2018-04-18T07:38:21.302Z,98903
2018-04-18T07:40:50.253Z,98898
2018-04-18T07:43:18.433Z,98905
2018-04-18T07:45:46.701Z,98903
2018-04-18T07:48:14.908Z,98907
2018-04-18T07:50:43.081Z,98905
2018-04-18T07:53:11.291Z,98911
2018-04-18T07:55:40.244Z,98911
2018-04-18T07:58:08.446Z,98903
2018-04-18T08:00:37.397Z,98908
2018-04-18T08:03:05.570Z,98912
2018-04-18T08:05:33.746Z,98908
2018-04-18T08:08:01.921Z,98908
2018-04-18T08:10:30.185Z,98911
2018-04-18T08:12:58.408Z,98911
2018-04-18T08:15:26.694Z,98913
2018-04-18T08:17:55.545Z,98915
2018-04-18T08:20:24.485Z,98910
2018-04-18T08:22:52.697Z,98912
2018-04-18T08:25:20.868Z,98912
2018-04-18T08:27:57.943Z,98910
2018-04-18T08:30:26.877Z,98912
2018-04-18T08:32:55.045Z,98904
2018-04-18T08:35:23.278Z,98906
2018-04-18T08:37:51.466Z,98902
2018-04-18T08:40:19.670Z,98903
2018-04-18T08:42:48.617Z,98898
2018-04-18T08:45:16.789Z,98897
2018-04-18T08:47:44.990Z,98894
2018-04-18T08:50:13.177Z,98900
2018-04-18T08:52:41.368Z,98901
2018-04-18T08:55:10.431Z,98904
2018-04-18T08:57:38.610Z,98885
2018-04-18T09:00:06.781Z,98897
2018-04-18T09:02:34.962Z,98895
2018-04-18T09:05:03.133Z,98896
2018-04-18T09:07:31.307Z,98891
2018-04-18T09:09:59.481Z,98892
2018-04-18T09:12:27.665Z,98899
2018-04-18T09:14:55.893Z,98890
2018-04-18T09:17:24.836Z,98888
2018-04-18T09:19:53.063Z,98886
2018-04-18T09:22:22.022Z,98893
2018-04-18T09:24:50.208Z,98888
2018-04-18T09:27:18.394Z,98883
2018-04-18T09:29:47.337Z,98888
2018-04-18T09:32:15.519Z,98881
2018-04-18T09:34:43.689Z,98881
2018-04-18T09:37:11.881Z,98880
2018-04-18T09:39:40.118Z,98880
2018-04-18T09:42:08.266Z,98873
2018-04-18T09:44:37.226Z,98874
2018-04-18T09:47:05.409Z,98871
2018-04-18T09:49:33.585Z,98868
2018-04-18T09:52:01.759Z,98867
2018-04-18T09:54:29.933Z,98858
2018-04-18T09:56:58.119Z,98852
2018-04-18T09:59:26.293Z,98854
2018-04-18T10:01:54.485Z,98854
2018-04-18T10:04:29.250Z,98856
2018-04-18T10:06:57.425Z,98852
2018-04-18T10:09:25.598Z,98848
2018-04-18T10:11:53.772Z,98845
2018-04-18T10:14:21.962Z,98845
2018-04-18T10:16:50.155Z,98842
2018-04-18T10:19:18.333Z,98847
2018-04-18T10:21:46.502Z,98848
2018-04-18T10:24:14.697Z,98842
2018-04-18T10:26:42.874Z,98839
2018-04-18T10:29:11.818Z,98841
2018-04-18T10:31:40.008Z,98840
2018-04-18T10:34:08.189Z,98847
2018-04-18T10:36:36.372Z,98837
2018-04-18T10:39:04.617Z,98830
2018-04-18T10:41:32.891Z,98832
2018-04-18T10:44:01.088Z,98829
2018-04-18T10:46:29.253Z,98831
2018-04-18T10:48:57.415Z,98829
2018-04-18T10:51:25.587Z,98832
2018-04-18T10:53:53.761Z,98833
2018-04-18T10:56:21.939Z,98832
2018-04-18T10:58:50.119Z,98827
2018-04-18T11:01:18.305Z,98824
2018-04-18T11:03:46.470Z,98823
2018-04-18T11:06:14.640Z,98816
2018-04-18T11:08:42.825Z,98810
2018-04-18T11:11:11.049Z,98810
2018-04-18T11:13:39.997Z,98812
2018-04-18T11:16:08.201Z,98809
2018-04-18T11:18:36.433Z,98808
2018-04-18T11:21:05.338Z,98804
2018-04-18T11:23:33.505Z,98804
2018-04-18T11:26:01.702Z,98806
2018-04-18T11:28:29.869Z,98803
2018-04-18T11:30:58.098Z,98795
2018-04-18T11:33:27.217Z,98798
2018-04-18T11:35:55.417Z,98803
2018-04-18T11:38:24.364Z,98791
2018-04-18T11:40:52.535Z,98791
2018-04-18T11:43:20.706Z,98792
2018-04-18T11:45:49.633Z,98794
2018-04-18T11:48:17.811Z,98797
2018-04-18T11:50:45.989Z,98795
2018-04-18T11:53:14.149Z,98786
2018-04-18T11:55:42.309Z,98792
2018-04-18T11:58:10.475Z,98788
2018-04-18T12:00:38.718Z,98790
2018-04-18T12:03:06.885Z,98789
2018-04-18T12:05:35.060Z,98792
2018-04-18T12:08:03.238Z,98790
2018-04-18T12:10:31.408Z,98786
2018-04-18T12:12:59.588Z,98778
2018-04-18T12:15:27.774Z,98774
2018-04-18T12:17:56.708Z,98776
2018-04-18T12:20:24.906Z,98781
2018-04-18T12:22:53.114Z,98774
2018-04-18T12:25:21.284Z,98776
2018-04-18T12:27:49.464Z,98771
2018-04-18T12:30:18.398Z,98778
2018-04-18T12:32:46.564Z,98776
2018-04-18T12:35:14.749Z,98773
2018-04-18T12:37:42.921Z,98776
2018-04-18T12:40:11.205Z,98773
2018-04-18T12:42:39.393Z,98770
2018-04-18T12:45:07.582Z,98766
2018-04-18T12:47:35.760Z,98762
2018-04-18T12:50:03.937Z,98766
2018-04-18T12:52:32.123Z,98760
2018-04-18T12:55:00.327Z,98764
2018-04-18T12:57:28.527Z,98759
2018-04-18T12:59:56.691Z,98758
2018-04-18T13:02:24.853Z,98758
2018-04-18T13:04:53.024Z,98754
2018-04-18T13:07:21.246Z,98757
2018-04-18T13:09:49.408Z,98753
2018-04-18T13:12:17.601Z,98744
2018-04-18T13:14:45.797Z,98746
2018-04-18T13:17:13.976Z,98749
2018-04-18T13:19:42.918Z,98744
2018-04-18T13:22:11.090Z,98742
2018-04-18T13:24:39.263Z,98737
2018-04-18T13:27:07.465Z,98740
2018-04-18T13:29:35.665Z,98741
2018-04-18T13:32:04.617Z,98736
2018-04-18T13:34:32.791Z,98737
2018-04-18T13:37:00.961Z,98737
2018-04-18T13:39:29.124Z,98738
2018-04-18T13:41:57.298Z,98737
2018-04-18T13:44:25.466Z,98732
2018-04-18T13:46:53.650Z,98721
2018-04-18T13:49:21.845Z,98730
2018-04-18T13:51:50.019Z,98730
2018-04-18T13:54:18.189Z,98727
2018-04-18T13:56:46.374Z,98727
2018-04-18T13:59:14.553Z,98725
2018-04-18T14:01:42.764Z,98725
2018-04-18T14:04:11.722Z,98726
2018-04-18T14:06:39.928Z,98723
2018-04-18T14:09:08.874Z,98719
2018-04-18T14:11:37.062Z,98716
2018-04-18T14:14:05.253Z,98717
2018-04-18T14:16:33.422Z,98715
2018-04-18T14:19:01.611Z,98717
2018-04-18T14:21:29.827Z,98714
2018-04-18T14:23:58.384Z,98709
2018-04-18T14:26:27.325Z,98710
2018-04-18T14:28:55.498Z,98713
2018-04-18T14:31:23.769Z,98709
2018-04-18T14:33:51.968Z,98708
2018-04-18T14:36:22.195Z,98702
2018-04-18T14:38:50.358Z,98713
2018-04-18T14:41:18.557Z,98715
2018-04-18T14:43:46.789Z,98715
2018-04-18T14:46:14.956Z,98711
2018-04-18T14:48:43.155Z,98716
2018-04-18T14:51:11.328Z,98711
2018-04-18T14:53:39.540Z,98716
2018-04-18T14:56:08.480Z,98707
2018-04-18T14:58:36.661Z,98709
2018-04-18T15:01:04.853Z,98700
2018-04-18T15:03:33.900Z,98703
2018-04-18T15:06:02.076Z,98701
2018-04-18T15:08:30.247Z,98698
2018-04-18T15:10:59.066Z,98693
2018-04-18T15:13:27.241Z,98695
2018-04-18T15:15:55.418Z,98694
2018-04-18T15:18:24.046Z,98692
2018-04-18T15:20:53.029Z,98695
2018-04-18T15:23:21.976Z,98693
2018-04-18T15:25:50.140Z,98698
2018-04-18T15:28:18.474Z,98696
2018-04-18T15:30:46.789Z,98694
2018-04-18T15:33:14.971Z,98699
2018-04-18T15:35:43.213Z,98700
2018-04-18T15:38:11.389Z,98703
2018-04-18T15:40:40.354Z,98703
2018-04-18T15:43:08.559Z,98698
2018-04-18T15:45:37.501Z,98702
2018-04-18T15:48:06.023Z,98706
2018-04-18T15:50:35.011Z,98705
2018-04-18T15:53:03.185Z,98706
2018-04-18T15:55:31.406Z,98710
2018-04-18T15:57:59.581Z,98705
2018-04-18T16:00:27.761Z,98706
2018-04-18T16:02:56.686Z,98701
2018-04-18T16:05:25.133Z,98706
2018-04-18T16:07:53.310Z,98708
2018-04-18T16:10:21.520Z,98709
2018-04-18T16:12:49.722Z,98712
2018-04-18T16:15:18.665Z,98713
2018-04-18T16:17:47.096Z,98705
2018-04-18T16:20:15.463Z,98717
2018-04-18T16:22:44.404Z,98716
2018-04-18T16:25:12.608Z,98717
2018-04-18T16:27:40.784Z,98708
2018-04-18T16:30:26.970Z,98717
2018-04-18T16:32:55.161Z,98715
2018-04-18T16:35:23.383Z,98715
2018-04-18T16:37:52.364Z,98710
2018-04-18T16:40:21.309Z,98709
2018-04-18T16:42:49.498Z,98712
2018-04-18T16:45:17.739Z,98711
2018-04-18T16:47:45.912Z,98712
2018-04-18T16:50:14.093Z,98716
2018-04-18T16:52:42.339Z,98714
2018-04-18T16:55:11.271Z,98707
2018-04-18T16:57:39.441Z,98719
2018-04-18T17:00:07.630Z,98714
2018-04-18T17:02:35.843Z,98717
2018-04-18T17:05:04.014Z,98715
2018-04-18T17:07:32.207Z,98715
2018-04-18T17:10:01.154Z,98712
2018-04-18T17:12:29.317Z,98717
2018-04-18T17:14:57.487Z,98719
2018-04-18T17:17:25.701Z,98719
2018-04-18T17:19:53.881Z,98719
2018-04-18T17:22:22.065Z,98723
2018-04-18T17:24:51.080Z,98719
2018-04-18T17:27:19.272Z,98720
2018-04-18T17:29:47.482Z,98718
2018-04-18T17:32:15.665Z,98721
2018-04-18T17:34:43.917Z,98724
2018-04-18T17:37:12.090Z,98721
2018-04-18T17:39:40.284Z,98728
2018-04-18T17:42:08.557Z,98731
2018-04-18T17:44:36.743Z,98729
2018-04-18T17:47:04.940Z,98735
2018-04-18T17:49:33.889Z,98735
2018-04-18T17:52:02.061Z,98740
2018-04-18T17:54:30.246Z,98741
2018-04-18T17:56:58.445Z,98743
2018-04-18T17:59:27.425Z,98748
2018-04-18T18:01:55.596Z,98748
2018-04-18T18:04:23.783Z,98748
2018-04-18T18:06:51.994Z,98754
2018-04-18T18:09:20.291Z,98755
2018-04-18T18:11:48.462Z,98758
2018-04-18T18:14:16.636Z,98763
2018-04-18T18:16:44.813Z,98767
2018-04-18T18:19:12.988Z,98765
2018-04-18T18:21:41.204Z,98774
2018-04-18T18:24:09.389Z,98773
2018-04-18T18:26:38.788Z,98778
2018-04-18T18:29:06.961Z,98778
2018-04-18T18:31:35.143Z,98787
2018-04-18T18:34:04.104Z,98790
2018-04-18T18:36:32.320Z,98795
2018-04-18T18:39:01.279Z,98794
2018-04-18T18:41:29.457Z,98802
2018-04-18T18:43:57.670Z,98799
2018-04-18T18:46:27.065Z,98813
2018-04-18T18:48:56.052Z,98811
2018-04-18T18:51:25.595Z,98820
2018-04-18T18:53:53.786Z,98821
2018-04-18T18:56:21.966Z,98824
2018-04-18T18:58:50.145Z,98826
2018-04-18T19:01:18.369Z,98832
2018-04-18T19:03:47.400Z,98830
2018-04-18T19:06:16.315Z,98828
2018-04-18T19:08:44.549Z,98826
2018-04-18T19:11:12.794Z,98827
2018-04-18T19:13:41.019Z,98830
2018-04-18T19:16:09.246Z,98835
2018-04-18T19:18:38.207Z,98842
2018-04-18T19:21:06.398Z,98841
2018-04-18T19:23:34.574Z,98847
2018-04-18T19:26:02.749Z,98850
2018-04-18T19:28:30.956Z,98852
2018-04-18T19:30:59.897Z,98854
2018-04-18T19:33:28.074Z,98852
2018-04-18T19:35:56.295Z,98852
2018-04-18T19:38:25.229Z,98855
2018-04-18T19:40:53.575Z,98859
2018-04-18T19:43:21.749Z,98859
2018-04-18T19:45:50.706Z,98860
2018-04-18T19:48:18.943Z,98860
2018-04-18T19:50:47.147Z,98864
2018-04-18T19:53:15.379Z,98860
2018-04-18T19:55:43.578Z,98860
2018-04-18T19:58:11.790Z,98856
2018-04-18T20:00:39.981Z,98860
2018-04-18T20:03:08.188Z,98854
2018-04-18T20:05:36.411Z,98858
2018-04-18T20:08:04.593Z,98851
2018-04-18T20:10:32.765Z,98851
2018-04-18T20:13:00.944Z,98849
2018-04-18T20:15:29.121Z,98854
2018-04-18T20:17:58.085Z,98852
2018-04-18T20:20:26.265Z,98855
2018-04-18T20:22:54.456Z,98857
2018-04-18T20:25:22.630Z,98857
2018-04-18T20:27:50.805Z,98852
2018-04-18T20:30:18.981Z,98857
2018-04-18T20:32:47.161Z,98854
2018-04-18T20:35:16.108Z,98851
2018-04-18T20:37:44.297Z,98855
2018-04-18T20:40:12.468Z,98855
2018-04-18T20:42:40.696Z,98850
2018-04-18T20:45:09.660Z,98859
2018-04-18T20:47:37.848Z,98851
2018-04-18T20:50:06.797Z,98857
2018-04-18T20:52:34.970Z,98854
2018-04-18T20:55:03.183Z,98853
2018-04-18T20:57:31.366Z,98852
2018-04-18T21:00:00.306Z,98854
2018-04-18T21:02:28.485Z,98852
2018-04-18T21:04:56.709Z,98850
2018-04-18T21:07:25.655Z,98850
2018-04-18T21:09:53.871Z,98846
2018-04-18T21:12:22.815Z,98852
2018-04-18T21:14:50.991Z,98847
2018-04-18T21:17:19.177Z,98839
2018-04-18T21:19:47.363Z,98844
2018-04-18T21:22:15.552Z,98844
2018-04-18T21:24:43.727Z,98847
2018-04-18T21:27:11.935Z,98841
2018-04-18T21:29:40.883Z,98842
2018-04-18T21:32:09.078Z,98839
2018-04-18T21:34:38.036Z,98843
2018-04-18T21:37:06.214Z,98844
2018-04-18T21:39:34.391Z,98843
2018-04-18T21:42:02.570Z,98846
2018-04-18T21:44:30.756Z,98854
2018-04-18T21:46:58.932Z,98850
2018-04-18T21:49:27.109Z,98852
2018-04-18T21:51:55.277Z,98849
2018-04-18T21:54:23.481Z,98854
2018-04-18T21:56:52.420Z,98855
2018-04-18T21:59:20.589Z,98853
2018-04-18T22:01:48.779Z,98852
2018-04-18T22:04:16.951Z,98848
2018-04-18T22:06:45.128Z,98849
2018-04-18T22:09:13.319Z,98848
2018-04-18T22:11:41.509Z,98853
2018-04-18T22:14:09.686Z,98855
2018-04-18T22:16:38.678Z,98852
2018-04-18T22:19:06.823Z,98857
2018-04-18T22:21:35.028Z,98852
2018-04-18T22:24:03.956Z,98858
2018-04-18T22:26:32.127Z,98859
2018-04-18T22:29:00.317Z,98858
2018-04-18T22:31:28.505Z,98857
2018-04-18T22:33:56.669Z,98853
2018-04-18T22:36:24.830Z,98851
2018-04-18T22:38:53.021Z,98856
2018-04-18T22:41:21.203Z,98854
2018-04-18T22:43:49.373Z,98851
2018-04-18T22:46:17.541Z,98848
2018-04-18T22:48:45.747Z,98851
2018-04-18T22:51:13.918Z,98853
2018-04-18T22:53:42.087Z,98857
2018-04-18T22:56:10.263Z,98854
2018-04-18T22:58:38.425Z,98858
2018-04-18T23:01:06.630Z,98854
2018-04-18T23:03:34.797Z,98852
2018-04-18T23:06:02.981Z,98858
2018-04-18T23:08:31.929Z,98856
2018-04-18T23:11:00.154Z,98856
2018-04-18T23:13:29.102Z,98856
2018-04-18T23:15:57.281Z,98859
2018-04-18T23:18:25.454Z,98857
2018-04-18T23:20:53.632Z,98860
2018-04-18T23:23:21.805Z,98858
2018-04-18T23:25:49.973Z,98855
2018-04-18T23:28:18.155Z,98855
2018-04-18T23:30:46.359Z,98854
2018-04-18T23:33:14.531Z,98851
2018-04-18T23:35:42.727Z,98848
2018-04-18T23:38:11.660Z,98849
2018-04-18T23:40:39.861Z,98845
2018-04-18T23:43:08.033Z,98840
2018-04-18T23:45:36.984Z,98844
2018-04-18T23:48:05.151Z,98842
2018-04-18T23:50:34.097Z,98842
2018-04-18T23:53:02.267Z,98843
2018-04-18T23:55:30.439Z,98845
2018-04-18T23:57:58.619Z,98844
